createdAt,value
2022-08-11T00:00:48.794Z,87.08
2022-08-11T00:01:48.766Z,87.18
2022-08-11T00:02:48.829Z,87.99
2022-08-11T00:03:48.752Z,88.20
2022-08-11T00:04:48.781Z,87.18
2022-08-11T00:05:48.736Z,87.28
2022-08-11T00:06:48.724Z,88.20
2022-08-11T00:07:48.722Z,87.93
2022-08-11T00:08:48.713Z,88.34
2022-08-11T00:09:48.690Z,87.89
2022-08-11T00:10:49.726Z,87.28
2022-08-11T00:11:48.686Z,88.44
2022-08-11T00:12:48.672Z,88.44
2022-08-11T00:13:48.670Z,88.75
2022-08-11T00:14:48.665Z,88.75
2022-08-11T00:15:48.809Z,88.64
2022-08-11T00:16:48.636Z,88.75
2022-08-11T00:17:49.633Z,88.13
2022-08-11T00:18:48.629Z,88.64
2022-08-11T00:20:15.099Z,89.15
2022-08-11T00:20:49.642Z,88.54
2022-08-11T00:22:03.003Z,88.54
2022-08-11T00:22:49.591Z,88.44
2022-08-11T00:23:48.586Z,88.60
2022-08-11T00:24:53.523Z,88.40
2022-08-11T00:25:49.602Z,88.29
2022-08-11T00:26:48.565Z,88.20
2022-08-11T00:27:48.554Z,88.20
2022-08-11T00:28:48.548Z,88.40
2022-08-11T00:29:51.863Z,89.35
2022-08-11T00:30:49.557Z,89.65
2022-08-11T00:31:48.532Z,89.86
2022-08-11T00:32:48.514Z,88.84
2022-08-11T00:33:48.494Z,88.84
2022-08-11T00:34:48.495Z,88.95
2022-08-11T00:35:54.183Z,88.64
2022-08-11T00:36:49.479Z,89.09
2022-08-11T00:37:48.467Z,88.64
2022-08-11T00:38:48.451Z,88.78
2022-08-11T00:39:48.500Z,89.39
2022-08-11T00:40:48.465Z,88.78
2022-08-11T00:41:48.432Z,88.58
2022-08-11T00:42:49.412Z,89.29
2022-08-11T00:43:48.419Z,88.89
2022-08-11T00:44:48.409Z,88.89
2022-08-11T00:45:48.430Z,88.99
2022-08-11T00:46:48.388Z,89.19
2022-08-11T00:47:48.394Z,89.94
2022-08-11T00:48:48.373Z,90.75
2022-08-11T00:49:48.364Z,90.35
2022-08-11T00:50:48.395Z,90.25
2022-08-11T00:52:02.389Z,90.25
2022-08-11T00:52:49.346Z,90.55
2022-08-11T00:53:48.331Z,90.66
2022-08-11T00:54:48.321Z,90.96
2022-08-11T00:55:55.909Z,90.96
2022-08-11T00:56:49.306Z,91.97
2022-08-11T00:57:48.287Z,91.56
2022-08-11T00:58:50.677Z,92.32
2022-08-11T00:59:48.283Z,91.91
2022-08-11T01:00:48.343Z,91.00
2022-08-11T01:01:48.258Z,91.71
2022-08-11T01:02:48.258Z,92.32
2022-08-11T01:03:48.241Z,92.52
2022-08-11T01:04:50.225Z,92.42
2022-08-11T01:05:49.274Z,91.91
2022-08-11T01:06:48.224Z,92.42
2022-08-11T01:08:01.979Z,92.36
2022-08-11T01:08:49.205Z,91.71
2022-08-11T01:09:48.187Z,92.42
2022-08-11T01:10:48.212Z,92.42
2022-08-11T01:11:55.263Z,92.26
2022-08-11T01:12:49.167Z,92.42
2022-08-11T01:13:48.156Z,91.75
2022-08-11T01:14:48.148Z,92.32
2022-08-11T01:15:56.086Z,92.26
2022-08-11T01:16:49.167Z,92.02
2022-08-11T01:17:48.127Z,91.96
2022-08-11T01:18:48.113Z,92.67
2022-08-11T01:20:45.476Z,92.57
2022-08-11T01:20:49.133Z,93.48
2022-08-11T01:21:49.092Z,92.57
2022-08-11T01:22:48.083Z,92.16
2022-08-11T01:23:48.078Z,92.26
2022-08-11T01:24:48.066Z,91.71
2022-08-11T01:25:56.980Z,91.71
2022-08-11T01:26:49.041Z,91.41
2022-08-11T01:27:48.042Z,91.82
2022-08-11T01:28:48.030Z,92.16
2022-08-11T01:29:49.105Z,91.96
2022-08-11T01:30:48.048Z,91.75
2022-08-11T01:31:48.006Z,92.06
2022-08-11T01:32:47.994Z,92.67
2022-08-11T01:33:47.990Z,92.36
2022-08-11T01:34:47.984Z,93.07
2022-08-11T01:35:48.005Z,91.96
2022-08-11T01:36:47.983Z,92.21
2022-08-11T01:37:48.958Z,92.26
2022-08-11T01:38:47.952Z,92.36
2022-08-11T01:39:48.004Z,92.00
2022-08-11T01:40:47.972Z,92.36
2022-08-11T01:41:47.923Z,92.57
2022-08-11T01:42:47.912Z,92.51
2022-08-11T01:43:47.907Z,92.26
2022-08-11T01:44:47.905Z,92.57
2022-08-11T01:45:47.933Z,92.61
2022-08-11T01:46:47.882Z,92.51
2022-08-11T01:47:52.568Z,93.12
2022-08-11T01:48:49.876Z,92.91
2022-08-11T01:50:06.828Z,93.02
2022-08-11T01:50:48.892Z,93.22
2022-08-11T01:51:47.854Z,93.02
2022-08-11T01:52:47.839Z,92.47
2022-08-11T01:53:47.851Z,92.26
2022-08-11T01:54:47.813Z,91.90
2022-08-11T01:55:47.816Z,92.51
2022-08-11T01:56:47.831Z,92.10
2022-08-11T01:57:47.791Z,92.30
2022-08-11T01:58:47.787Z,92.10
2022-08-11T01:59:47.775Z,93.32
2022-08-11T02:00:47.779Z,92.82
2022-08-11T02:01:47.794Z,93.43
2022-08-11T02:02:47.840Z,92.41
2022-08-11T02:03:47.739Z,91.90
2022-08-11T02:04:47.737Z,92.41
2022-08-11T02:05:47.721Z,92.51
2022-08-11T02:06:47.748Z,92.51
2022-08-11T02:07:47.713Z,92.00
2022-08-11T02:08:50.435Z,91.80
2022-08-11T02:09:49.976Z,92.21
2022-08-11T02:10:50.711Z,92.21
2022-08-11T02:11:47.706Z,92.30
2022-08-11T02:12:52.539Z,92.41
2022-08-11T02:13:48.879Z,92.30
2022-08-11T02:14:57.263Z,91.80
2022-08-11T02:15:48.660Z,92.76
2022-08-11T02:16:47.672Z,92.04
2022-08-11T02:17:47.631Z,92.45
2022-08-11T02:18:47.618Z,92.65
2022-08-11T02:19:47.617Z,92.65
2022-08-11T02:20:47.607Z,92.65
2022-08-11T02:22:02.312Z,92.04
2022-08-11T02:22:47.597Z,91.94
2022-08-11T02:24:05.579Z,92.86
2022-08-11T02:24:48.569Z,92.86
2022-08-11T02:25:47.569Z,92.04
2022-08-11T02:26:47.592Z,92.86
2022-08-11T02:27:47.546Z,92.86
2022-08-11T02:28:47.544Z,93.06
2022-08-11T02:29:47.533Z,93.67
2022-08-11T02:30:47.529Z,93.51
2022-08-11T02:32:23.748Z,93.82
2022-08-11T02:32:48.508Z,93.71
2022-08-11T02:33:47.505Z,93.71
2022-08-11T02:35:00.045Z,93.62
2022-08-11T02:35:48.486Z,93.01
2022-08-11T02:36:47.515Z,93.01
2022-08-11T02:38:30.307Z,94.02
2022-08-11T02:38:47.460Z,94.12
2022-08-11T02:39:47.513Z,94.63
2022-08-11T02:40:47.448Z,95.24
2022-08-11T02:41:47.459Z,95.39
2022-08-11T02:42:47.927Z,96.10
2022-08-11T02:43:50.846Z,95.39
2022-08-11T02:44:47.407Z,95.39
2022-08-11T02:45:47.411Z,94.68
2022-08-11T02:46:47.436Z,95.29
2022-08-11T02:48:41.815Z,95.08
2022-08-11T02:48:47.374Z,96.00
2022-08-11T02:49:47.355Z,95.90
2022-08-11T02:50:55.944Z,96.00
2022-08-11T02:51:47.389Z,96.20
2022-08-11T02:52:47.345Z,94.98
2022-08-11T02:53:48.558Z,94.68
2022-08-11T02:54:48.332Z,95.49
2022-08-11T02:55:57.289Z,96.30
2022-08-11T02:56:48.347Z,96.00
2022-08-11T02:57:47.303Z,95.39
2022-08-11T02:58:47.294Z,96.10
2022-08-11T02:59:47.285Z,96.41
2022-08-11T03:00:47.278Z,95.49
2022-08-11T03:01:47.310Z,95.39
2022-08-11T03:02:47.285Z,95.29
2022-08-11T03:03:47.277Z,95.49
2022-08-11T03:04:47.250Z,95.29
2022-08-11T03:05:47.257Z,95.18
2022-08-11T03:06:47.259Z,95.13
2022-08-11T03:07:47.221Z,95.13
2022-08-11T03:08:47.211Z,95.53
2022-08-11T03:09:47.211Z,95.59
2022-08-11T03:10:47.193Z,95.43
2022-08-11T03:11:47.219Z,95.39
2022-08-11T03:12:50.350Z,94.98
2022-08-11T03:13:49.174Z,95.49
2022-08-11T03:14:47.167Z,95.49
2022-08-11T03:15:47.170Z,94.88
2022-08-11T03:16:47.176Z,95.29
2022-08-11T03:17:47.140Z,95.18
2022-08-11T03:18:47.135Z,94.88
2022-08-11T03:19:47.125Z,94.37
2022-08-11T03:20:47.119Z,94.27
2022-08-11T03:22:03.031Z,94.57
2022-08-11T03:22:48.096Z,94.17
2022-08-11T03:23:47.086Z,94.31
2022-08-11T03:24:47.080Z,95.23
2022-08-11T03:25:47.077Z,94.62
2022-08-11T03:26:47.097Z,94.31
2022-08-11T03:27:47.063Z,94.72
2022-08-11T03:28:47.051Z,95.03
2022-08-11T03:29:47.036Z,95.03
2022-08-11T03:30:47.028Z,95.33
2022-08-11T03:31:47.051Z,95.59
2022-08-11T03:32:47.009Z,94.88
2022-08-11T03:33:47.004Z,94.98
2022-08-11T03:34:46.994Z,94.68
2022-08-11T03:35:46.987Z,94.17
2022-08-11T03:36:55.761Z,94.27
2022-08-11T03:37:47.959Z,93.96
2022-08-11T03:38:46.963Z,94.17
2022-08-11T03:39:51.141Z,94.98
2022-08-11T03:40:47.934Z,95.13
2022-08-11T03:42:03.406Z,95.13
2022-08-11T03:42:47.921Z,94.01
2022-08-11T03:43:58.115Z,95.28
2022-08-11T03:44:47.917Z,95.37
2022-08-11T03:45:46.899Z,96.09
2022-08-11T03:46:46.918Z,95.43
2022-08-11T03:47:52.655Z,95.37
2022-08-11T03:48:47.874Z,95.37
2022-08-11T03:49:46.869Z,95.74
2022-08-11T03:50:47.721Z,96.09
2022-08-11T03:51:51.730Z,96.39
2022-08-11T03:52:47.847Z,96.30
2022-08-11T03:53:46.838Z,96.30
2022-08-11T03:54:46.830Z,96.60
2022-08-11T03:55:46.816Z,96.75
2022-08-11T03:56:46.859Z,96.54
2022-08-11T03:57:46.810Z,96.75
2022-08-11T03:58:46.798Z,96.70
2022-08-11T03:59:46.777Z,96.09
2022-08-11T04:00:46.777Z,96.91
2022-08-11T04:01:46.885Z,96.70
2022-08-11T04:02:46.759Z,97.21
2022-08-11T04:03:46.750Z,97.05
2022-08-11T04:04:50.578Z,96.64
2022-08-11T04:05:46.733Z,97.62
2022-08-11T04:06:46.758Z,96.91
2022-08-11T04:07:46.714Z,96.95
2022-08-11T04:08:46.707Z,96.91
2022-08-11T04:09:46.794Z,97.25
2022-08-11T04:10:46.700Z,96.84
2022-08-11T04:11:46.717Z,97.66
2022-08-11T04:12:47.906Z,96.84
2022-08-11T04:13:47.661Z,97.16
2022-08-11T04:14:46.671Z,96.84
2022-08-11T04:15:46.669Z,96.84
2022-08-11T04:16:46.636Z,97.11
2022-08-11T04:17:46.657Z,96.80
2022-08-11T04:18:46.628Z,97.11
2022-08-11T04:19:46.613Z,96.91
2022-08-11T04:20:47.611Z,97.27
2022-08-11T04:21:46.611Z,96.66
2022-08-11T04:22:46.635Z,96.51
2022-08-11T04:24:37.229Z,96.20
2022-08-11T04:24:50.478Z,96.06
2022-08-11T04:25:58.042Z,95.54
2022-08-11T04:26:47.562Z,95.14
2022-08-11T04:27:47.729Z,95.14
2022-08-11T04:28:50.183Z,94.89
2022-08-11T04:30:01.947Z,93.98
2022-08-11T04:30:47.530Z,93.63
2022-08-11T04:31:51.447Z,93.02
2022-08-11T04:32:47.535Z,93.28
2022-08-11T04:33:46.498Z,92.22
2022-08-11T04:34:46.512Z,91.00
2022-08-11T04:35:50.901Z,90.86
2022-08-11T04:36:47.481Z,90.45
2022-08-11T04:37:53.282Z,89.90
2022-08-11T04:38:47.460Z,89.39
2022-08-11T04:39:46.494Z,89.35
2022-08-11T04:40:46.446Z,89.01
2022-08-11T04:41:46.437Z,88.49
2022-08-11T04:42:46.460Z,88.60
2022-08-11T04:44:06.009Z,87.65
2022-08-11T04:44:48.416Z,87.34
2022-08-11T04:45:46.429Z,87.28
2022-08-11T04:46:46.391Z,86.73
2022-08-11T04:48:04.278Z,86.76
2022-08-11T04:48:47.375Z,85.54
2022-08-11T04:49:46.364Z,84.79
2022-08-11T04:51:00.792Z,84.89
2022-08-11T04:51:47.339Z,84.85
2022-08-11T04:52:46.371Z,84.39
2022-08-11T04:53:46.341Z,84.79
2022-08-11T04:54:47.331Z,84.25
2022-08-11T04:55:46.318Z,84.45
2022-08-11T04:56:46.314Z,84.00
2022-08-11T04:57:46.330Z,83.29
2022-08-11T04:58:46.286Z,81.84
2022-08-11T04:59:46.300Z,81.74
2022-08-11T05:00:46.268Z,81.50
2022-08-11T05:01:46.322Z,78.84
2022-08-11T05:02:46.280Z,78.74
2022-08-11T05:03:46.248Z,79.14
2022-08-11T05:04:46.242Z,79.44
2022-08-11T05:05:54.653Z,79.38
2022-08-11T05:06:47.228Z,78.97
2022-08-11T05:07:46.248Z,79.54
2022-08-11T05:08:46.206Z,79.30
2022-08-11T05:09:46.185Z,79.21
2022-08-11T05:10:47.197Z,78.39
2022-08-11T05:11:46.187Z,79.27
2022-08-11T05:12:46.207Z,78.08
2022-08-11T05:13:46.172Z,76.97
2022-08-11T05:14:46.164Z,77.35
2022-08-11T05:15:50.920Z,78.26
2022-08-11T05:16:48.166Z,78.16
2022-08-11T05:17:46.146Z,77.62
2022-08-11T05:18:46.122Z,76.37
2022-08-11T05:19:46.113Z,76.14
2022-08-11T05:21:07.394Z,74.52
2022-08-11T05:21:46.127Z,74.69
2022-08-11T05:22:46.087Z,72.34
2022-08-11T05:23:46.073Z,71.56
2022-08-11T05:24:46.074Z,71.47
2022-08-11T05:26:45.066Z,71.53
2022-08-11T05:26:49.656Z,72.30
2022-08-11T05:27:47.039Z,72.71
2022-08-11T05:28:46.255Z,72.71
2022-08-11T05:29:46.028Z,72.64
2022-08-11T05:30:46.016Z,73.44
2022-08-11T05:31:46.042Z,74.01
2022-08-11T05:32:45.998Z,72.67
2022-08-11T05:33:45.987Z,71.53
2022-08-11T05:34:45.981Z,71.33
2022-08-11T05:36:00.240Z,71.43
2022-08-11T05:36:47.004Z,71.20
2022-08-11T05:37:45.959Z,70.16
2022-08-11T05:38:45.948Z,69.46
2022-08-11T05:39:45.978Z,70.26
2022-08-11T05:40:51.272Z,70.26
2022-08-11T05:41:47.291Z,70.36
2022-08-11T05:42:45.911Z,69.42
2022-08-11T05:44:20.005Z,70.26
2022-08-11T05:44:46.897Z,70.50
2022-08-11T05:46:03.956Z,70.76
2022-08-11T05:46:46.916Z,71.33
2022-08-11T05:47:45.875Z,69.92
2022-08-11T05:48:45.871Z,70.03
2022-08-11T05:49:45.857Z,70.53
2022-08-11T05:50:45.849Z,70.83
2022-08-11T05:51:54.612Z,70.83
2022-08-11T05:52:49.250Z,70.23
2022-08-11T05:53:46.823Z,69.89
2022-08-11T05:54:45.861Z,69.86
2022-08-11T05:56:02.108Z,67.79
2022-08-11T05:56:46.801Z,66.32
2022-08-11T05:57:51.505Z,66.06
2022-08-11T05:58:46.794Z,65.89
2022-08-11T05:59:45.787Z,65.16
2022-08-11T06:00:45.786Z,65.83
2022-08-11T06:01:45.851Z,66.13
2022-08-11T06:02:45.794Z,67.22
2022-08-11T06:03:58.685Z,65.73
2022-08-11T06:04:46.746Z,65.19
2022-08-11T06:05:45.741Z,65.26
2022-08-11T06:06:47.124Z,64.00
2022-08-11T06:07:48.640Z,64.13
2022-08-11T06:08:45.717Z,64.43
2022-08-11T06:09:45.715Z,64.23
2022-08-11T06:10:45.732Z,64.43
2022-08-11T06:11:45.702Z,64.13
2022-08-11T06:12:45.729Z,63.53
2022-08-11T06:13:45.671Z,63.63
2022-08-11T06:14:45.662Z,63.80
2022-08-11T06:15:45.673Z,63.70
2022-08-11T06:16:45.667Z,63.80
2022-08-11T06:17:45.676Z,63.70
2022-08-11T06:18:45.634Z,63.67
2022-08-11T06:19:45.640Z,63.80
2022-08-11T06:20:45.625Z,64.70
2022-08-11T06:21:45.629Z,64.13
2022-08-11T06:22:48.564Z,64.23
2022-08-11T06:23:46.639Z,63.67
2022-08-11T06:24:45.594Z,62.74
2022-08-11T06:25:45.577Z,63.47
2022-08-11T06:27:09.038Z,62.31
2022-08-11T06:27:47.591Z,61.46
2022-08-11T06:28:45.559Z,60.73
2022-08-11T06:29:48.078Z,61.03
2022-08-11T06:30:45.542Z,60.53
2022-08-11T06:31:45.530Z,60.96
2022-08-11T06:32:45.546Z,60.86
2022-08-11T06:33:45.511Z,61.58
2022-08-11T06:34:45.504Z,61.13
2022-08-11T06:35:45.494Z,60.93
2022-08-11T06:36:45.485Z,61.53
2022-08-11T06:37:45.522Z,60.80
2022-08-11T06:38:45.467Z,60.70
2022-08-11T06:39:45.470Z,60.08
2022-08-11T06:40:45.451Z,59.35
2022-08-11T06:41:45.448Z,59.38
2022-08-11T06:42:45.475Z,59.65
2022-08-11T06:43:51.020Z,59.25
2022-08-11T06:44:46.432Z,59.03
2022-08-11T06:45:45.435Z,58.62
2022-08-11T06:46:52.964Z,59.35
2022-08-11T06:47:45.444Z,59.35
2022-08-11T06:48:45.390Z,58.70
2022-08-11T06:49:45.394Z,57.95
2022-08-11T06:50:45.370Z,56.73
2022-08-11T06:51:46.366Z,56.53
2022-08-11T06:52:45.484Z,56.53
2022-08-11T06:54:03.409Z,56.60
2022-08-11T06:54:46.354Z,56.74
2022-08-11T06:55:56.815Z,56.42
2022-08-11T06:56:46.334Z,55.43
2022-08-11T06:57:45.327Z,55.08
2022-08-11T06:58:45.341Z,54.98
2022-08-11T06:59:45.310Z,55.21
2022-08-11T07:00:45.302Z,55.76
2022-08-11T07:01:46.242Z,55.83
2022-08-11T07:02:45.285Z,54.79
2022-08-11T07:03:45.313Z,55.53
2022-08-11T07:04:45.280Z,55.70
2022-08-11T07:05:45.266Z,55.73
2022-08-11T07:06:50.607Z,56.35
2022-08-11T07:07:46.239Z,56.52
2022-08-11T07:08:45.260Z,56.02
2022-08-11T07:09:45.232Z,56.00
2022-08-11T07:10:45.230Z,55.45
2022-08-11T07:11:45.211Z,54.14
2022-08-11T07:12:45.207Z,54.04
2022-08-11T07:13:45.973Z,53.92
2022-08-11T07:14:46.189Z,54.11
2022-08-11T07:16:10.585Z,53.85
2022-08-11T07:16:46.210Z,54.02
2022-08-11T07:17:45.338Z,54.24
2022-08-11T07:18:45.188Z,54.11
2022-08-11T07:19:45.175Z,52.87
2022-08-11T07:20:45.148Z,52.70
2022-08-11T07:22:02.615Z,52.83
2022-08-11T07:22:46.132Z,52.28
2022-08-11T07:23:45.177Z,52.58
2022-08-11T07:24:59.793Z,51.69
2022-08-11T07:25:46.099Z,51.32
2022-08-11T07:26:45.151Z,49.80
2022-08-11T07:27:53.721Z,49.99
2022-08-11T07:28:46.113Z,49.43
2022-08-11T07:29:45.105Z,50.09
2022-08-11T07:30:45.071Z,49.99
2022-08-11T07:31:45.086Z,49.38
2022-08-11T07:32:45.049Z,48.84
2022-08-11T07:34:05.919Z,47.61
2022-08-11T07:34:46.045Z,43.62
2022-08-11T07:35:45.037Z,42.08
2022-08-11T07:36:45.024Z,43.39
2022-08-11T07:37:45.183Z,43.22
2022-08-11T07:38:46.000Z,43.71
2022-08-11T07:39:45.058Z,45.54
2022-08-11T07:40:44.998Z,45.89
2022-08-11T07:41:45.014Z,44.27
2022-08-11T07:42:44.997Z,44.10
2022-08-11T07:43:45.001Z,44.49
2022-08-11T07:44:45.096Z,42.72
2022-08-11T07:45:44.991Z,44.32
2022-08-11T07:46:44.950Z,44.02
2022-08-11T07:47:44.963Z,44.10
2022-08-11T07:48:44.988Z,43.24
2022-08-11T07:49:44.933Z,43.90
2022-08-11T07:50:44.925Z,43.89
2022-08-11T07:51:44.928Z,44.85
2022-08-11T07:52:44.933Z,44.20
2022-08-11T07:53:58.681Z,42.98
2022-08-11T07:54:51.126Z,43.04
2022-08-11T07:55:50.873Z,45.39
2022-08-11T07:58:00.180Z,44.54
2022-08-11T07:58:14.251Z,43.02
2022-08-11T07:58:52.285Z,43.36
2022-08-11T07:59:58.536Z,43.71
2022-08-11T08:00:47.034Z,43.57
2022-08-11T08:01:46.033Z,41.49
2022-08-11T08:02:44.857Z,42.76
2022-08-11T08:03:54.817Z,43.55
2022-08-11T08:04:47.467Z,41.66
2022-08-11T08:05:45.813Z,42.18
2022-08-11T08:06:44.819Z,41.76
2022-08-11T08:07:45.351Z,42.96
2022-08-11T08:08:44.818Z,44.10
2022-08-11T08:09:44.855Z,43.73
2022-08-11T08:10:44.773Z,43.73
2022-08-11T08:11:44.776Z,43.66
2022-08-11T08:12:44.783Z,43.79
2022-08-11T08:13:44.799Z,43.98
2022-08-11T08:14:44.836Z,42.32
2022-08-11T08:15:44.774Z,42.98
2022-08-11T08:16:44.769Z,43.29
2022-08-11T08:17:44.762Z,42.15
2022-08-11T08:18:45.737Z,44.13
2022-08-11T08:19:44.778Z,41.62
2022-08-11T08:20:44.729Z,42.11
2022-08-11T08:21:45.359Z,42.07
2022-08-11T08:22:48.276Z,41.60
2022-08-11T08:23:45.683Z,41.42
2022-08-11T08:24:44.715Z,41.96
2022-08-11T08:25:44.677Z,41.84
2022-08-11T08:26:51.662Z,41.62
2022-08-11T08:27:45.661Z,42.02
2022-08-11T08:28:44.651Z,40.64
2022-08-11T08:30:14.400Z,42.11
2022-08-11T08:30:44.648Z,42.68
2022-08-11T08:31:44.649Z,41.68
2022-08-11T08:32:45.370Z,40.11
2022-08-11T08:33:45.372Z,40.33
2022-08-11T08:34:44.645Z,41.62
2022-08-11T08:36:09.012Z,42.50
2022-08-11T08:36:45.607Z,40.43
2022-08-11T08:37:47.706Z,39.14
2022-08-11T08:39:30.913Z,41.52
2022-08-11T08:39:45.641Z,42.74
2022-08-11T08:40:45.581Z,41.78
2022-08-11T08:41:44.570Z,40.37
2022-08-11T08:42:45.511Z,39.36
2022-08-11T08:43:48.463Z,39.41
2022-08-11T08:44:45.079Z,38.26
2022-08-11T08:45:45.539Z,38.90
2022-08-11T08:46:44.535Z,38.20
2022-08-11T08:47:44.520Z,39.18
2022-08-11T08:48:44.515Z,38.77
2022-08-11T08:49:46.526Z,38.30
2022-08-11T08:50:46.840Z,38.30
2022-08-11T08:52:01.751Z,38.20
2022-08-11T08:52:45.681Z,39.37
2022-08-11T08:53:52.395Z,38.09
2022-08-11T08:54:45.508Z,39.20
2022-08-11T08:55:45.628Z,40.29
2022-08-11T08:56:45.473Z,38.20
2022-08-11T08:57:44.462Z,39.20
2022-08-11T08:58:44.460Z,39.59
2022-08-11T08:59:48.879Z,37.79
2022-08-11T09:00:45.433Z,37.46
2022-08-11T09:01:44.498Z,36.37
2022-08-11T09:02:45.579Z,37.48
2022-08-11T09:04:04.737Z,36.91
2022-08-11T09:04:45.491Z,37.40
2022-08-11T09:05:44.402Z,37.07
2022-08-11T09:06:44.389Z,38.20
2022-08-11T09:07:45.523Z,37.17
2022-08-11T09:08:44.377Z,36.84
2022-08-11T09:09:44.399Z,37.60
2022-08-11T09:10:44.372Z,36.35
2022-08-11T09:11:44.366Z,37.63
2022-08-11T09:12:44.362Z,38.65
2022-08-11T09:13:44.516Z,37.27
2022-08-11T09:14:44.382Z,38.81
2022-08-11T09:15:44.330Z,38.16
2022-08-11T09:16:44.366Z,37.43
2022-08-11T09:17:44.323Z,37.31
2022-08-11T09:18:44.324Z,37.65
2022-08-11T09:19:44.345Z,37.29
2022-08-11T09:20:45.306Z,38.32
2022-08-11T09:21:49.421Z,36.76
2022-08-11T09:22:45.299Z,37.45
2022-08-11T09:24:46.303Z,35.00
2022-08-11T09:25:44.268Z,34.88
2022-08-11T09:26:44.265Z,35.44
2022-08-11T09:27:50.561Z,37.25
2022-08-11T09:28:45.265Z,37.29
2022-08-11T09:29:44.279Z,37.57
2022-08-11T09:30:44.240Z,37.60
2022-08-11T09:31:44.236Z,35.70
2022-08-11T09:32:44.224Z,36.46
2022-08-11T09:33:44.210Z,35.37
2022-08-11T09:34:44.234Z,35.61
2022-08-11T09:35:44.209Z,35.44
2022-08-11T09:36:44.211Z,36.65
2022-08-11T09:37:55.517Z,36.69
2022-08-11T09:38:49.402Z,35.41
2022-08-11T09:39:45.258Z,35.31
2022-08-11T09:40:44.187Z,35.23
2022-08-11T09:42:00.945Z,36.79
2022-08-11T09:42:45.169Z,34.71
2022-08-11T09:43:44.161Z,35.57
2022-08-11T09:44:44.189Z,34.55
2022-08-11T09:45:44.139Z,33.70
2022-08-11T09:46:58.920Z,34.44
2022-08-11T09:47:44.137Z,34.67
2022-08-11T09:48:44.122Z,35.06
2022-08-11T09:49:44.152Z,35.10
2022-08-11T09:50:44.109Z,35.02
2022-08-11T09:51:56.660Z,34.39
2022-08-11T09:53:16.559Z,34.81
2022-08-11T09:54:02.637Z,35.60
2022-08-11T09:54:48.092Z,34.97
2022-08-11T09:55:44.089Z,33.14
2022-08-11T09:57:05.191Z,33.56
2022-08-11T09:57:45.082Z,32.35
2022-08-11T09:58:44.127Z,32.52
2022-08-11T09:59:44.064Z,31.43
2022-08-11T10:00:44.086Z,33.02
2022-08-11T10:01:44.095Z,32.96
2022-08-11T10:02:44.047Z,34.65
2022-08-11T10:03:44.021Z,33.07
2022-08-11T10:04:44.116Z,33.26
2022-08-11T10:05:44.040Z,34.49
2022-08-11T10:06:44.000Z,34.36
2022-08-11T10:07:43.999Z,34.26
2022-08-11T10:08:43.996Z,34.59
2022-08-11T10:09:43.998Z,34.34
2022-08-11T10:10:44.012Z,33.33
2022-08-11T10:11:43.975Z,33.30
2022-08-11T10:12:44.957Z,32.37
2022-08-11T10:14:34.042Z,32.75
2022-08-11T10:14:45.081Z,33.07
2022-08-11T10:16:00.194Z,33.36
2022-08-11T10:16:44.931Z,34.23
2022-08-11T10:17:43.946Z,34.70
2022-08-11T10:18:43.918Z,34.78
2022-08-11T10:19:43.920Z,34.18
2022-08-11T10:20:43.952Z,34.74
2022-08-11T10:21:43.913Z,33.64
2022-08-11T10:22:43.910Z,34.39
2022-08-11T10:24:01.015Z,32.76
2022-08-11T10:24:44.920Z,33.67
2022-08-11T10:25:43.922Z,32.28
2022-08-11T10:26:50.556Z,31.90
2022-08-11T10:28:17.613Z,32.05
2022-08-11T10:29:49.798Z,33.20
2022-08-11T10:30:43.887Z,32.58
2022-08-11T10:31:56.697Z,33.11
2022-08-11T10:32:57.435Z,33.62
2022-08-11T10:33:57.742Z,33.40
2022-08-11T10:34:54.459Z,32.50
2022-08-11T10:35:44.863Z,33.02
2022-08-11T10:36:43.813Z,32.21
2022-08-11T10:38:15.797Z,32.42
2022-08-11T10:38:44.797Z,31.98
2022-08-11T10:39:43.879Z,31.84
2022-08-11T10:40:43.792Z,29.85
2022-08-11T10:42:08.283Z,31.29
2022-08-11T10:42:57.369Z,32.45
2022-08-11T10:44:01.450Z,33.07
2022-08-11T10:44:53.212Z,33.38
2022-08-11T10:45:43.761Z,33.28
2022-08-11T10:46:43.799Z,33.20
2022-08-11T10:47:44.283Z,33.18
2022-08-11T10:48:44.731Z,33.22
2022-08-11T10:49:43.736Z,33.45
2022-08-11T10:50:43.723Z,34.11
2022-08-11T10:51:51.568Z,33.50
2022-08-11T10:52:44.748Z,33.65
2022-08-11T10:53:43.699Z,33.17
2022-08-11T10:54:43.791Z,34.08
2022-08-11T10:55:43.699Z,35.42
2022-08-11T10:56:43.715Z,35.83
2022-08-11T10:57:43.683Z,34.81
2022-08-11T10:58:44.700Z,35.06
2022-08-11T10:59:43.662Z,33.56
2022-08-11T11:00:43.650Z,34.77
2022-08-11T11:01:43.725Z,34.91
2022-08-11T11:02:43.644Z,35.53
2022-08-11T11:03:43.642Z,35.22
2022-08-11T11:04:45.558Z,34.48
2022-08-11T11:06:27.235Z,34.73
2022-08-11T11:06:44.650Z,33.93
2022-08-11T11:07:44.824Z,34.00
2022-08-11T11:08:43.630Z,32.71
2022-08-11T11:09:43.606Z,32.29
2022-08-11T11:10:43.604Z,32.29
2022-08-11T11:11:43.614Z,31.98
2022-08-11T11:12:43.584Z,30.69
2022-08-11T11:13:53.379Z,32.08
2022-08-11T11:14:46.262Z,32.00
2022-08-11T11:15:44.589Z,32.44
2022-08-11T11:16:43.588Z,31.82
2022-08-11T11:17:43.552Z,34.79
2022-08-11T11:18:43.550Z,33.28
2022-08-11T11:19:44.977Z,32.57
2022-08-11T11:20:47.427Z,33.40
2022-08-11T11:21:44.567Z,33.98
2022-08-11T11:22:43.523Z,34.86
2022-08-11T11:23:43.513Z,34.28
2022-08-11T11:24:43.521Z,34.08
2022-08-11T11:25:43.501Z,34.00
2022-08-11T11:26:43.532Z,34.75
2022-08-11T11:27:46.324Z,34.67
2022-08-11T11:28:43.484Z,34.77
2022-08-11T11:29:43.474Z,34.48
2022-08-11T11:30:43.476Z,35.01
2022-08-11T11:31:43.496Z,33.61
2022-08-11T11:32:47.624Z,34.73
2022-08-11T11:34:06.133Z,32.96
2022-08-11T11:34:53.207Z,32.97
2022-08-11T11:35:44.452Z,33.28
2022-08-11T11:36:43.467Z,32.97
2022-08-11T11:38:04.089Z,32.92
2022-08-11T11:38:44.433Z,33.43
2022-08-11T11:39:43.446Z,33.09
2022-08-11T11:40:43.415Z,33.83
2022-08-11T11:41:43.439Z,32.43
2022-08-11T11:43:02.394Z,32.49
2022-08-11T11:43:43.400Z,31.32
2022-08-11T11:44:43.394Z,32.29
2022-08-11T11:45:43.402Z,33.15
2022-08-11T11:46:43.413Z,33.28
2022-08-11T11:47:43.365Z,33.25
2022-08-11T11:48:43.357Z,32.06
2022-08-11T11:49:43.346Z,32.87
2022-08-11T11:50:43.346Z,33.25
2022-08-11T11:51:43.396Z,34.78
2022-08-11T11:52:43.342Z,32.37
2022-08-11T11:53:43.338Z,32.34
2022-08-11T11:54:43.323Z,32.68
2022-08-11T11:55:43.319Z,33.51
2022-08-11T11:56:43.346Z,33.59
2022-08-11T11:57:58.927Z,33.51
2022-08-11T11:58:44.298Z,33.23
2022-08-11T11:59:43.282Z,33.15
2022-08-11T12:00:43.585Z,33.72
2022-08-11T12:01:44.848Z,33.67
2022-08-11T12:02:44.276Z,33.38
2022-08-11T12:03:43.294Z,32.48
2022-08-11T12:04:43.264Z,32.16
2022-08-11T12:05:43.244Z,32.63
2022-08-11T12:06:43.259Z,32.53
2022-08-11T12:07:43.233Z,33.43
2022-08-11T12:08:43.242Z,32.50
2022-08-11T12:09:43.218Z,33.84
2022-08-11T12:10:43.208Z,33.92
2022-08-11T12:12:16.190Z,33.38
2022-08-11T12:12:43.194Z,32.70
2022-08-11T12:13:43.206Z,32.73
2022-08-11T12:14:43.192Z,32.48
2022-08-11T12:16:31.664Z,33.59
2022-08-11T12:16:44.220Z,33.26
2022-08-11T12:17:43.162Z,32.99
2022-08-11T12:18:43.153Z,33.26
2022-08-11T12:19:43.245Z,33.40
2022-08-11T12:20:44.137Z,32.60
2022-08-11T12:21:43.165Z,33.20
2022-08-11T12:22:44.126Z,33.02
2022-08-11T12:23:43.113Z,33.38
2022-08-11T12:24:43.112Z,31.66
2022-08-11T12:25:43.125Z,30.81
2022-08-11T12:26:43.141Z,32.40
2022-08-11T12:27:43.094Z,33.23
2022-08-11T12:28:43.088Z,32.60
2022-08-11T12:29:43.938Z,32.48
2022-08-11T12:31:44.096Z,33.20
2022-08-11T12:32:43.068Z,32.71
2022-08-11T12:33:43.070Z,33.01
2022-08-11T12:34:43.049Z,34.75
2022-08-11T12:35:43.037Z,32.89
2022-08-11T12:36:44.054Z,32.99
2022-08-11T12:37:43.032Z,33.79
2022-08-11T12:38:43.017Z,33.59
2022-08-11T12:40:17.006Z,34.50
2022-08-11T12:41:13.691Z,34.39
2022-08-11T12:41:45.108Z,33.01
2022-08-11T12:42:42.992Z,34.62
2022-08-11T12:43:42.996Z,34.78
2022-08-11T12:44:42.983Z,33.58
2022-08-11T12:45:42.981Z,32.67
2022-08-11T12:46:43.003Z,34.08
2022-08-11T12:47:42.980Z,33.38
2022-08-11T12:48:58.721Z,33.18
2022-08-11T12:49:45.683Z,33.30
2022-08-11T12:50:43.953Z,33.09
2022-08-11T12:52:11.502Z,33.17
2022-08-11T12:52:43.936Z,33.38
2022-08-11T12:53:42.914Z,32.67
2022-08-11T12:54:42.917Z,34.18
2022-08-11T12:55:42.907Z,33.50